createdAt,value
2019-01-31T00:01:33.199Z,13.63
2019-01-31T00:04:56.627Z,14.43
2019-01-31T00:07:45.645Z,14.43
2019-01-31T00:11:09.565Z,13.80
2019-01-31T00:14:13.967Z,13.83
2019-01-31T00:16:55.839Z,15.10
2019-01-31T00:19:34.399Z,14.33
2019-01-31T00:22:41.307Z,13.77
2019-01-31T00:25:29.718Z,15.10
2019-01-31T00:28:44.318Z,14.47
2019-01-31T00:31:37.644Z,14.03
2019-01-31T00:34:57.802Z,15.63
2019-01-31T00:37:43.032Z,13.90
2019-01-31T00:40:53.309Z,14.07
2019-01-31T00:44:11.328Z,14.13
2019-01-31T00:47:27.035Z,14.40
2019-01-31T00:50:32.131Z,13.57
2019-01-31T00:53:37.052Z,16.17
2019-01-31T00:56:55.124Z,15.97
2019-01-31T00:59:57.137Z,14.67
2019-01-31T01:02:46.764Z,15.70
2019-01-31T01:05:40.858Z,17.60
2019-01-31T01:08:46.884Z,15.97
2019-01-31T01:11:46.474Z,15.63
2019-01-31T01:14:54.096Z,18.63
2019-01-31T01:17:37.835Z,17.13
2019-01-31T01:20:21.517Z,16.30
2019-01-31T01:23:30.801Z,16.90
2019-01-31T01:26:55.036Z,15.77
2019-01-31T01:29:46.192Z,14.90
2019-01-31T01:32:50.027Z,14.43
2019-01-31T01:35:47.896Z,14.63
2019-01-31T01:38:41.428Z,14.57
2019-01-31T01:41:54.496Z,15.70
2019-01-31T01:44:36.305Z,15.13
2019-01-31T01:47:17.575Z,15.50
2019-01-31T01:49:52.127Z,16.43
2019-01-31T01:52:47.786Z,14.53
2019-01-31T01:55:52.272Z,16.90
2019-01-31T01:58:29.314Z,14.77
2019-01-31T02:01:36.893Z,16.67
2019-01-31T02:11:01.740Z,15.77
2019-01-31T02:14:09.022Z,14.93
2019-01-31T02:17:03.480Z,17.23
2019-01-31T02:20:12.794Z,15.03
2019-01-31T02:47:20.392Z,15.10
2019-01-31T02:50:34.884Z,15.77
2019-01-31T02:53:26.074Z,15.57
2019-01-31T02:56:04.779Z,15.57
2019-01-31T02:59:06.956Z,16.00
2019-01-31T03:02:24.671Z,14.73
2019-01-31T03:05:21.378Z,16.40
2019-01-31T03:08:44.406Z,18.20
2019-01-31T03:11:20.867Z,17.47
2019-01-31T03:14:28.888Z,17.47
2019-01-31T03:17:45.623Z,19.03
2019-01-31T03:20:44.254Z,16.67
2019-01-31T03:23:48.768Z,19.70
2019-01-31T03:26:49.080Z,17.73
2019-01-31T03:29:37.483Z,19.10
2019-01-31T03:32:37.325Z,19.60
2019-01-31T03:35:38.232Z,20.30
2019-01-31T03:38:43.654Z,20.23
2019-01-31T03:41:31.136Z,17.20
2019-01-31T03:44:12.880Z,18.20
2019-01-31T03:47:21.833Z,19.83
2019-01-31T03:50:00.931Z,20.33
2019-01-31T03:53:12.953Z,19.97
2019-01-31T03:56:04.961Z,18.97
2019-01-31T03:59:14.463Z,18.20
2019-01-31T04:02:15.661Z,19.00
2019-01-31T04:05:32.942Z,20.47
2019-01-31T04:08:00.143Z,19.00
2019-01-31T04:10:29.685Z,19.60
2019-01-31T04:12:56.938Z,22.03
2019-01-31T04:15:24.161Z,19.63
2019-01-31T04:17:51.389Z,21.20
2019-01-31T04:20:18.628Z,21.10
2019-01-31T04:22:45.852Z,21.70
2019-01-31T04:25:13.069Z,20.73
2019-01-31T04:27:40.310Z,25.30
2019-01-31T04:30:10.527Z,21.47
2019-01-31T04:32:37.759Z,21.73
2019-01-31T04:35:05.255Z,23.50
2019-01-31T04:37:32.479Z,22.17
2019-01-31T04:39:59.711Z,23.10
2019-01-31T04:42:26.955Z,22.50
2019-01-31T04:44:54.195Z,23.70
2019-01-31T04:47:21.432Z,22.47
2019-01-31T04:49:48.725Z,22.83
2019-01-31T04:52:15.922Z,20.67
2019-01-31T04:54:43.211Z,20.73
2019-01-31T04:57:10.451Z,20.67
2019-01-31T04:59:37.673Z,21.70
2019-01-31T05:02:04.908Z,19.17
2019-01-31T05:04:32.185Z,20.37
2019-01-31T05:06:59.404Z,19.20
2019-01-31T05:09:26.683Z,21.00
2019-01-31T05:11:54.011Z,20.00
2019-01-31T05:14:21.228Z,18.90
2019-01-31T05:16:48.452Z,19.73
2019-01-31T05:19:15.709Z,19.47
2019-01-31T05:21:42.897Z,18.77
2019-01-31T05:24:10.121Z,19.20
2019-01-31T05:26:37.401Z,19.60
2019-01-31T05:29:04.617Z,20.37
2019-01-31T05:31:31.833Z,20.23
2019-01-31T05:33:59.088Z,19.70
2019-01-31T05:36:26.307Z,19.23
2019-01-31T05:38:53.518Z,19.20
2019-01-31T05:41:20.788Z,18.27
2019-01-31T05:43:48.005Z,20.10
2019-01-31T05:46:18.292Z,19.27
2019-01-31T05:48:44.371Z,19.70
2019-01-31T05:51:11.665Z,18.23
2019-01-31T05:53:38.878Z,19.97
2019-01-31T05:56:06.154Z,20.27
2019-01-31T05:58:33.377Z,18.50
2019-01-31T06:01:00.578Z,17.67
2019-01-31T06:03:27.829Z,17.70
2019-01-31T06:05:55.107Z,18.23
2019-01-31T06:08:22.349Z,18.13
2019-01-31T06:10:49.571Z,18.90
2019-01-31T06:13:16.886Z,19.30
2019-01-31T06:15:44.122Z,19.00
2019-01-31T06:18:11.354Z,19.73
2019-01-31T06:20:38.605Z,17.77
2019-01-31T06:23:05.818Z,16.90
2019-01-31T06:25:33.040Z,17.00
2019-01-31T06:28:00.309Z,17.00
2019-01-31T06:30:30.242Z,17.87
2019-01-31T06:32:57.459Z,15.90
2019-01-31T06:35:24.717Z,17.43
2019-01-31T06:37:51.955Z,17.27
2019-01-31T06:40:19.460Z,17.20
2019-01-31T06:42:46.927Z,16.63
2019-01-31T06:45:16.398Z,15.67
2019-01-31T06:47:43.608Z,15.27
2019-01-31T06:50:10.860Z,15.60
2019-01-31T06:52:38.284Z,16.07
2019-01-31T06:55:05.886Z,14.33
2019-01-31T06:57:33.147Z,12.80
2019-01-31T07:00:00.341Z,14.60
2019-01-31T07:02:27.559Z,14.93
2019-01-31T07:04:54.822Z,14.80
2019-01-31T07:07:22.076Z,13.83
2019-01-31T07:09:49.332Z,13.50
2019-01-31T07:12:16.551Z,13.43
2019-01-31T07:14:44.604Z,13.80
2019-01-31T07:17:11.881Z,14.10
2019-01-31T07:19:39.098Z,12.90
2019-01-31T07:22:06.434Z,12.03
2019-01-31T07:24:33.698Z,13.20
2019-01-31T07:27:00.909Z,11.93
2019-01-31T07:29:28.144Z,12.33
2019-01-31T07:31:55.413Z,11.37
2019-01-31T07:34:22.632Z,11.57
2019-01-31T07:36:49.858Z,11.93
2019-01-31T07:39:17.115Z,11.03
2019-01-31T07:41:44.330Z,11.60
2019-01-31T07:44:11.547Z,10.37
2019-01-31T07:46:38.827Z,10.20
2019-01-31T07:49:06.226Z,10.00
2019-01-31T07:51:33.521Z,9.67
2019-01-31T07:54:00.748Z,9.97
2019-01-31T07:56:27.980Z,9.80
2019-01-31T07:58:55.238Z,10.23
2019-01-31T08:01:22.460Z,9.70
2019-01-31T08:03:49.686Z,8.97
2019-01-31T08:06:16.938Z,9.63
2019-01-31T08:08:44.157Z,9.03
2019-01-31T08:11:11.375Z,7.10
2019-01-31T08:13:38.629Z,8.37
2019-01-31T08:16:05.833Z,8.30
2019-01-31T08:18:33.157Z,7.20
2019-01-31T08:21:00.418Z,8.50
2019-01-31T08:23:27.628Z,7.73
2019-01-31T08:25:54.846Z,8.73
2019-01-31T08:28:22.132Z,8.23
2019-01-31T08:30:49.468Z,8.47
2019-01-31T08:33:16.683Z,8.43
2019-01-31T08:35:43.934Z,8.07
2019-01-31T08:38:11.177Z,7.63
2019-01-31T08:40:38.399Z,8.10
2019-01-31T08:43:05.659Z,8.30
2019-01-31T08:45:32.912Z,8.50
2019-01-31T08:48:00.131Z,8.60
2019-01-31T08:50:27.958Z,7.83
2019-01-31T08:52:55.321Z,8.60
2019-01-31T08:55:22.549Z,7.30
2019-01-31T08:57:49.775Z,7.67
2019-01-31T09:00:20.064Z,8.50
2019-01-31T09:02:47.349Z,7.90
2019-01-31T09:05:14.684Z,8.70
2019-01-31T09:07:41.928Z,8.00
2019-01-31T09:10:13.121Z,9.30
2019-01-31T09:12:40.330Z,9.93
2019-01-31T09:15:08.301Z,9.23
2019-01-31T09:17:35.557Z,9.40
2019-01-31T09:20:03.757Z,10.40
2019-01-31T09:22:40.108Z,10.77
2019-01-31T09:25:46.640Z,11.83
2019-01-31T09:28:33.186Z,12.47
2019-01-31T09:31:38.030Z,11.00
2019-01-31T09:34:49.458Z,14.43
2019-01-31T09:38:03.549Z,14.73
2019-01-31T09:41:15.280Z,13.80
2019-01-31T09:44:42.696Z,15.13
2019-01-31T09:47:50.743Z,15.67
2019-01-31T09:50:45.201Z,15.77
2019-01-31T09:53:41.919Z,15.90
2019-01-31T09:56:55.948Z,17.53
2019-01-31T09:59:44.047Z,15.67
2019-01-31T10:02:55.101Z,18.20
2019-01-31T10:06:18.380Z,16.43
2019-01-31T10:09:21.450Z,17.47
2019-01-31T10:12:38.184Z,17.63
2019-01-31T10:15:38.148Z,13.60
2019-01-31T10:18:36.070Z,18.53
2019-01-31T10:21:33.552Z,19.90
2019-01-31T10:24:36.971Z,18.50
2019-01-31T10:27:48.891Z,18.77
2019-01-31T10:30:56.244Z,20.30
2019-01-31T10:34:23.645Z,20.50
2019-01-31T10:37:20.182Z,19.73
2019-01-31T10:39:56.616Z,21.93
2019-01-31T10:42:32.306Z,20.87
2019-01-31T10:45:49.331Z,21.00
2019-01-31T10:48:48.455Z,21.67
2019-01-31T10:52:09.500Z,22.47
2019-01-31T10:55:06.300Z,22.20
2019-01-31T10:58:08.730Z,22.13
2019-01-31T11:01:36.002Z,22.87
2019-01-31T11:04:47.599Z,22.60
2019-01-31T11:08:02.557Z,24.03
2019-01-31T11:10:51.093Z,22.80
2019-01-31T11:13:54.348Z,21.97
2019-01-31T11:16:56.866Z,22.20
2019-01-31T11:19:38.963Z,23.27
2019-01-31T11:22:53.987Z,22.80
2019-01-31T11:26:05.745Z,22.93
2019-01-31T11:29:10.434Z,21.83
2019-01-31T11:32:11.817Z,21.60
2019-01-31T11:35:15.398Z,22.50
2019-01-31T11:38:05.784Z,21.77
2019-01-31T11:41:10.669Z,22.10
2019-01-31T11:44:29.653Z,22.93
2019-01-31T11:47:20.457Z,22.67
2019-01-31T11:50:08.833Z,22.90
2019-01-31T11:52:50.712Z,23.00
2019-01-31T11:55:48.746Z,24.37
2019-01-31T11:58:42.885Z,19.27
2019-01-31T12:01:10.432Z,23.27
2019-01-31T12:03:38.084Z,22.57
2019-01-31T12:06:05.437Z,24.17
2019-01-31T12:08:32.658Z,23.30
2019-01-31T12:10:59.858Z,23.77
2019-01-31T12:13:27.132Z,23.10
2019-01-31T12:15:54.348Z,23.60
2019-01-31T12:18:21.553Z,21.80
2019-01-31T12:20:48.851Z,21.80
2019-01-31T12:23:16.081Z,24.60
2019-01-31T12:25:43.322Z,23.90
2019-01-31T12:28:10.679Z,23.10
2019-01-31T12:30:37.918Z,23.33
2019-01-31T12:33:05.145Z,20.17
2019-01-31T12:35:32.396Z,22.80
2019-01-31T12:37:59.618Z,21.63
2019-01-31T12:40:26.936Z,21.70
2019-01-31T12:42:54.195Z,22.73
2019-01-31T12:45:21.529Z,21.90
2019-01-31T12:47:48.772Z,21.77
2019-01-31T12:50:22.018Z,21.80
2019-01-31T12:52:49.336Z,21.53
2019-01-31T12:55:16.574Z,20.90
2019-01-31T12:57:44.768Z,23.47
2019-01-31T13:00:16.849Z,21.53
2019-01-31T13:02:44.068Z,21.20
2019-01-31T13:05:12.738Z,20.13
2019-01-31T13:07:40.968Z,21.10
2019-01-31T13:10:08.629Z,21.37
2019-01-31T13:12:35.853Z,21.97
2019-01-31T13:15:03.838Z,22.57
2019-01-31T13:17:31.277Z,22.73
2019-01-31T13:19:58.525Z,20.90
2019-01-31T13:22:25.743Z,21.37
2019-01-31T13:24:52.997Z,21.83
2019-01-31T13:27:20.203Z,21.17
2019-01-31T13:29:47.425Z,21.07
2019-01-31T13:32:14.686Z,20.67
2019-01-31T13:34:41.934Z,21.80
2019-01-31T13:37:09.266Z,21.97
2019-01-31T13:39:36.542Z,22.10
2019-01-31T13:42:04.045Z,22.03
2019-01-31T13:44:31.352Z,21.70
2019-01-31T13:46:58.712Z,21.17
2019-01-31T13:49:25.935Z,21.07
2019-01-31T13:51:53.196Z,19.67
2019-01-31T13:54:20.473Z,19.47
2019-01-31T13:56:47.695Z,22.10
2019-01-31T13:59:14.957Z,21.60
2019-01-31T14:01:42.236Z,20.03
2019-01-31T14:04:09.461Z,18.90
2019-01-31T14:06:36.713Z,19.67
2019-01-31T14:09:07.583Z,20.13
2019-01-31T14:11:34.812Z,18.93
2019-01-31T14:14:08.738Z,17.67
2019-01-31T14:16:31.217Z,17.73
2019-01-31T14:18:58.469Z,18.47
2019-01-31T14:21:25.711Z,18.43
2019-01-31T14:23:53.416Z,18.50
2019-01-31T14:26:20.626Z,19.33
2019-01-31T14:28:47.906Z,20.57
2019-01-31T14:31:15.326Z,18.37
2019-01-31T14:33:42.549Z,19.17
2019-01-31T14:36:09.795Z,21.50
2019-01-31T14:38:37.022Z,19.70
2019-01-31T14:41:04.358Z,20.23
2019-01-31T14:43:31.578Z,18.13
2019-01-31T14:45:58.812Z,17.40
2019-01-31T14:48:26.038Z,19.77
2019-01-31T14:50:53.343Z,19.10
2019-01-31T14:53:20.606Z,20.33
2019-01-31T14:55:47.820Z,17.53
2019-01-31T14:58:15.155Z,17.13
2019-01-31T15:00:42.375Z,18.63
2019-01-31T15:03:09.647Z,19.87
2019-01-31T15:05:37.068Z,18.73
2019-01-31T15:08:04.780Z,17.30
2019-01-31T15:10:32.157Z,17.93
2019-01-31T15:12:59.387Z,18.73
2019-01-31T15:15:26.618Z,18.77
2019-01-31T15:17:54.000Z,18.97
2019-01-31T15:20:35.796Z,15.50
2019-01-31T15:22:55.442Z,15.43
2019-01-31T15:25:22.796Z,17.33
2019-01-31T15:27:50.173Z,17.20
2019-01-31T15:30:20.763Z,15.27
2019-01-31T15:32:48.012Z,17.10
2019-01-31T15:35:16.645Z,17.70
2019-01-31T15:37:43.916Z,15.47
2019-01-31T15:40:15.455Z,16.57
2019-01-31T15:42:42.664Z,15.27
2019-01-31T15:45:10.216Z,17.03
2019-01-31T15:47:37.437Z,17.90
2019-01-31T15:50:06.429Z,16.17
2019-01-31T15:52:33.804Z,16.43
2019-01-31T15:55:01.084Z,19.33
2019-01-31T15:57:28.317Z,18.57
2019-01-31T15:59:55.542Z,17.53
2019-01-31T16:02:22.773Z,19.60
2019-01-31T16:04:50.036Z,16.93
2019-01-31T16:07:17.260Z,19.87
2019-01-31T16:09:44.489Z,20.13
2019-01-31T16:12:12.070Z,17.10
2019-01-31T16:14:39.424Z,18.47
2019-01-31T16:17:06.806Z,17.60
2019-01-31T16:19:34.071Z,18.53
2019-01-31T16:22:01.285Z,17.07
2019-01-31T16:24:28.505Z,19.60
2019-01-31T16:26:55.797Z,18.83
2019-01-31T16:29:23.041Z,16.10
2019-01-31T16:31:50.519Z,18.57
2019-01-31T16:34:17.789Z,19.20
2019-01-31T16:36:45.103Z,17.47
2019-01-31T16:39:12.358Z,15.87
2019-01-31T16:41:39.579Z,18.20
2019-01-31T16:44:07.183Z,16.77
2019-01-31T16:46:36.480Z,16.07
2019-01-31T16:49:03.980Z,16.57
2019-01-31T16:51:31.387Z,14.10
2019-01-31T16:53:58.669Z,19.83
2019-01-31T16:56:25.939Z,19.13
2019-01-31T16:58:53.755Z,20.07
2019-01-31T17:01:20.955Z,19.03
2019-01-31T17:03:48.210Z,18.87
2019-01-31T17:06:15.413Z,19.77
2019-01-31T17:08:42.655Z,20.60
2019-01-31T17:11:09.856Z,20.00
2019-01-31T17:13:37.062Z,19.73
2019-01-31T17:16:04.330Z,20.33
2019-01-31T17:18:31.530Z,20.50
2019-01-31T17:20:58.752Z,21.33
2019-01-31T17:23:26.012Z,19.37
2019-01-31T17:25:53.241Z,18.37
2019-01-31T17:28:20.453Z,21.60
2019-01-31T17:30:47.742Z,23.63
2019-01-31T17:33:14.973Z,19.73
2019-01-31T17:35:42.215Z,22.53
2019-01-31T17:38:09.655Z,24.37
2019-01-31T17:40:38.735Z,22.47
2019-01-31T17:43:07.145Z,22.13
2019-01-31T17:45:34.355Z,23.47
2019-01-31T17:48:01.690Z,22.07
2019-01-31T17:50:28.920Z,23.80
2019-01-31T17:52:56.328Z,20.77
2019-01-31T17:55:23.799Z,19.47
2019-01-31T17:57:51.327Z,19.33
2019-01-31T18:00:24.657Z,22.47
2019-01-31T18:02:51.909Z,21.37
2019-01-31T18:05:19.125Z,19.87
2019-01-31T18:07:46.371Z,19.43
2019-01-31T18:10:16.426Z,21.20
2019-01-31T18:12:43.740Z,20.70
2019-01-31T18:15:11.638Z,20.60
2019-01-31T18:17:38.911Z,20.10
2019-01-31T18:20:07.458Z,19.27
2019-01-31T18:22:34.672Z,21.50
2019-01-31T18:25:01.943Z,21.20
2019-01-31T18:27:29.165Z,22.27
2019-01-31T18:29:59.197Z,19.60
2019-01-31T18:32:26.481Z,20.20
2019-01-31T18:34:53.742Z,22.90
2019-01-31T18:37:20.985Z,24.57
2019-01-31T18:39:48.222Z,26.63
2019-01-31T18:42:15.566Z,23.23
2019-01-31T18:44:43.750Z,21.57
2019-01-31T18:47:11.124Z,21.73
2019-01-31T18:49:38.397Z,25.27
2019-01-31T18:52:05.698Z,23.80
2019-01-31T18:54:32.932Z,26.37
2019-01-31T18:57:00.182Z,28.47
2019-01-31T18:59:27.433Z,28.07
2019-01-31T19:01:54.658Z,29.93
2019-01-31T19:04:21.894Z,29.60
2019-01-31T19:06:49.122Z,29.33
2019-01-31T19:09:16.331Z,29.83
2019-01-31T19:11:43.598Z,30.03
2019-01-31T19:14:10.933Z,31.63
2019-01-31T19:16:38.214Z,32.83
2019-01-31T19:19:05.532Z,31.00
2019-01-31T19:21:32.771Z,30.43
2019-01-31T19:24:00.053Z,32.10
2019-01-31T19:26:27.471Z,32.50
2019-01-31T19:28:54.685Z,31.00
2019-01-31T19:31:22.016Z,33.10
2019-01-31T19:33:51.714Z,31.37
2019-01-31T19:36:18.417Z,31.90
2019-01-31T19:38:45.658Z,30.20
2019-01-31T19:41:12.889Z,31.87
2019-01-31T19:43:40.130Z,30.90
2019-01-31T19:46:16.217Z,32.33
2019-01-31T19:48:36.661Z,30.50
2019-01-31T19:51:04.317Z,29.93
2019-01-31T19:53:31.631Z,31.37
2019-01-31T19:55:58.876Z,30.77
2019-01-31T19:58:26.168Z,29.90
2019-01-31T20:00:53.392Z,28.23
2019-01-31T20:03:20.638Z,29.60
2019-01-31T20:05:47.894Z,29.70
2019-01-31T20:08:15.334Z,27.47
2019-01-31T20:10:42.720Z,28.47
2019-01-31T20:13:09.966Z,29.53
2019-01-31T20:15:37.195Z,28.20
2019-01-31T20:18:04.946Z,28.17
2019-01-31T20:20:32.223Z,27.90
2019-01-31T20:22:59.565Z,26.30
2019-01-31T20:25:27.649Z,27.07
2019-01-31T20:27:54.921Z,28.60
2019-01-31T20:30:24.360Z,26.73
2019-01-31T20:32:51.914Z,26.70
2019-01-31T20:35:19.571Z,27.70
2019-01-31T20:37:46.798Z,27.47
2019-01-31T20:40:16.328Z,25.60
2019-01-31T20:42:43.629Z,27.23
2019-01-31T20:45:11.856Z,26.17
2019-01-31T20:47:39.205Z,25.23
2019-01-31T20:50:10.129Z,24.40
2019-01-31T20:52:37.613Z,26.87
2019-01-31T20:55:06.187Z,25.67
2019-01-31T20:57:33.492Z,24.23
2019-01-31T21:00:00.694Z,25.63
2019-01-31T21:02:27.945Z,26.17
2019-01-31T21:04:55.209Z,23.27
2019-01-31T21:07:22.456Z,22.60
2019-01-31T21:09:49.669Z,23.83
2019-01-31T21:12:17.148Z,24.47
2019-01-31T21:14:44.358Z,22.97
2019-01-31T21:17:11.563Z,24.70
2019-01-31T21:19:38.819Z,24.87
2019-01-31T21:22:06.140Z,24.53
2019-01-31T21:24:33.418Z,24.33
2019-01-31T21:27:00.649Z,24.13
2019-01-31T21:29:27.924Z,26.87
2019-01-31T21:31:55.162Z,24.33
2019-01-31T21:34:23.187Z,25.33
2019-01-31T21:36:50.457Z,23.47
2019-01-31T21:39:17.705Z,24.60
2019-01-31T21:41:44.982Z,23.97
2019-01-31T21:44:12.224Z,23.73
2019-01-31T21:46:39.472Z,22.33
2019-01-31T21:49:06.735Z,22.87
2019-01-31T21:51:37.397Z,22.20
2019-01-31T21:54:04.815Z,21.53
2019-01-31T21:56:32.082Z,21.60
2019-01-31T21:58:59.326Z,21.77
2019-01-31T22:01:26.567Z,21.43
2019-01-31T22:03:53.807Z,21.20
2019-01-31T22:06:22.702Z,20.97
2019-01-31T22:08:50.226Z,21.60
2019-01-31T22:11:17.504Z,20.47
2019-01-31T22:13:44.735Z,21.00
2019-01-31T22:16:12.012Z,21.20
2019-01-31T22:18:39.356Z,21.67
2019-01-31T22:21:06.583Z,20.30
2019-01-31T22:23:33.815Z,19.17
2019-01-31T22:26:01.147Z,18.87
2019-01-31T22:28:28.464Z,18.90
2019-01-31T22:30:55.758Z,18.07
2019-01-31T22:33:23.369Z,19.47
2019-01-31T22:35:50.836Z,17.27
2019-01-31T22:38:18.074Z,17.43
2019-01-31T22:40:45.632Z,17.20
2019-01-31T22:43:12.877Z,16.63
2019-01-31T22:45:40.207Z,16.63
2019-01-31T22:48:07.489Z,16.90
2019-01-31T22:50:34.827Z,15.43
2019-01-31T22:53:02.048Z,17.17
2019-01-31T22:55:29.322Z,16.70
2019-01-31T22:57:56.546Z,16.67
2019-01-31T23:00:32.123Z,16.43
2019-01-31T23:02:59.381Z,16.43
2019-01-31T23:05:26.630Z,15.87
2019-01-31T23:07:54.002Z,15.33
2019-01-31T23:10:21.322Z,15.23
2019-01-31T23:12:48.546Z,14.03
2019-01-31T23:15:18.509Z,15.10
2019-01-31T23:17:45.727Z,15.67
2019-01-31T23:20:13.450Z,14.63
2019-01-31T23:22:40.816Z,15.83
2019-01-31T23:25:08.337Z,13.37
2019-01-31T23:27:35.565Z,12.83
2019-01-31T23:30:05.303Z,13.37
2019-01-31T23:32:32.525Z,13.03
2019-01-31T23:34:59.757Z,12.33
2019-01-31T23:37:27.179Z,11.50
2019-01-31T23:39:54.507Z,11.13
2019-01-31T23:42:21.733Z,10.53
2019-01-31T23:44:48.993Z,10.57
2019-01-31T23:47:16.216Z,11.17
2019-01-31T23:49:43.441Z,10.43
2019-01-31T23:52:11.083Z,10.00
2019-01-31T23:54:38.392Z,9.23
2019-01-31T23:57:05.622Z,9.93
2019-01-31T23:59:32.884Z,9.60
